sensor_id;sensor_type;location;lat;lon;timestamp;P1;durP1;ratioP1;P2;durP2;ratioP2
51190;SDS011;37253;48.736;9.294;2023-12-20T00:03:11;22.10;;;9.85;;
51190;SDS011;37253;48.736;9.294;2023-12-20T00:05:12;25.42;;;10.50;;
51190;SDS011;37253;48.736;9.294;2023-12-20T00:07:15;24.58;;;11.13;;
51190;SDS011;37253;48.736;9.294;2023-12-20T00:09:15;22.02;;;10.35;;
51190;SDS011;37253;48.736;9.294;2023-12-20T00:11:16;22.33;;;10.13;;
51190;SDS011;37253;48.736;9.294;2023-12-20T00:13:17;27.70;;;10.93;;
51190;SDS011;37253;48.736;9.294;2023-12-20T00:15:17;26.10;;;10.32;;
51190;SDS011;37253;48.736;9.294;2023-12-20T00:17:17;23.63;;;9.40;;
51190;SDS011;37253;48.736;9.294;2023-12-20T00:19:17;20.90;;;10.02;;
51190;SDS011;37253;48.736;9.294;2023-12-20T00:21:18;20.27;;;9.23;;
51190;SDS011;37253;48.736;9.294;2023-12-20T00:23:18;22.08;;;10.15;;
51190;SDS011;37253;48.736;9.294;2023-12-20T00:25:18;25.65;;;11.00;;
51190;SDS011;37253;48.736;9.294;2023-12-20T00:27:19;19.08;;;9.13;;
51190;SDS011;37253;48.736;9.294;2023-12-20T00:29:19;19.08;;;9.30;;
51190;SDS011;37253;48.736;9.294;2023-12-20T00:31:19;21.00;;;9.00;;
51190;SDS011;37253;48.736;9.294;2023-12-20T00:33:20;23.70;;;10.50;;
51190;SDS011;37253;48.736;9.294;2023-12-20T00:35:20;17.30;;;8.50;;
51190;SDS011;37253;48.736;9.294;2023-12-20T00:37:20;19.10;;;8.88;;
51190;SDS011;37253;48.736;9.294;2023-12-20T00:39:21;19.65;;;9.00;;
51190;SDS011;37253;48.736;9.294;2023-12-20T00:41:21;23.73;;;9.98;;
51190;SDS011;37253;48.736;9.294;2023-12-20T00:43:21;18.63;;;8.48;;
51190;SDS011;37253;48.736;9.294;2023-12-20T00:45:21;18.63;;;8.75;;
51190;SDS011;37253;48.736;9.294;2023-12-20T00:47:22;17.17;;;8.60;;
51190;SDS011;37253;48.736;9.294;2023-12-20T00:49:22;18.33;;;8.05;;
51190;SDS011;37253;48.736;9.294;2023-12-20T00:51:22;17.58;;;8.32;;
51190;SDS011;37253;48.736;9.294;2023-12-20T00:53:23;19.33;;;8.55;;
51190;SDS011;37253;48.736;9.294;2023-12-20T00:55:23;20.45;;;8.23;;
51190;SDS011;37253;48.736;9.294;2023-12-20T00:57:23;17.45;;;7.95;;
51190;SDS011;37253;48.736;9.294;2023-12-20T00:59:24;17.40;;;7.68;;
51190;SDS011;37253;48.736;9.294;2023-12-20T01:01:24;15.85;;;7.68;;
51190;SDS011;37253;48.736;9.294;2023-12-20T01:03:24;17.15;;;7.32;;
51190;SDS011;37253;48.736;9.294;2023-12-20T01:05:24;16.88;;;7.95;;
51190;SDS011;37253;48.736;9.294;2023-12-20T01:07:25;15.57;;;7.35;;
51190;SDS011;37253;48.736;9.294;2023-12-20T01:09:25;16.92;;;8.00;;
51190;SDS011;37253;48.736;9.294;2023-12-20T01:11:28;16.80;;;7.65;;
51190;SDS011;37253;48.736;9.294;2023-12-20T01:13:28;15.10;;;7.07;;
51190;SDS011;37253;48.736;9.294;2023-12-20T01:15:29;16.83;;;6.80;;
51190;SDS011;37253;48.736;9.294;2023-12-20T01:17:29;15.30;;;7.22;;
51190;SDS011;37253;48.736;9.294;2023-12-20T01:19:29;13.85;;;6.32;;
51190;SDS011;37253;48.736;9.294;2023-12-20T01:21:30;16.15;;;7.32;;
51190;SDS011;37253;48.736;9.294;2023-12-20T01:23:30;16.52;;;6.38;;
51190;SDS011;37253;48.736;9.294;2023-12-20T01:25:31;14.25;;;6.38;;
51190;SDS011;37253;48.736;9.294;2023-12-20T01:27:32;11.57;;;6.38;;
51190;SDS011;37253;48.736;9.294;2023-12-20T01:29:32;16.45;;;7.18;;
51190;SDS011;37253;48.736;9.294;2023-12-20T01:31:32;13.65;;;6.57;;
51190;SDS011;37253;48.736;9.294;2023-12-20T01:33:33;12.98;;;6.57;;
51190;SDS011;37253;48.736;9.294;2023-12-20T01:35:33;12.82;;;6.25;;
51190;SDS011;37253;48.736;9.294;2023-12-20T01:37:33;12.05;;;6.28;;
51190;SDS011;37253;48.736;9.294;2023-12-20T01:39:33;13.00;;;5.90;;
51190;SDS011;37253;48.736;9.294;2023-12-20T01:41:34;12.32;;;5.93;;
51190;SDS011;37253;48.736;9.294;2023-12-20T01:43:34;11.90;;;5.70;;
51190;SDS011;37253;48.736;9.294;2023-12-20T01:45:35;11.45;;;6.22;;
51190;SDS011;37253;48.736;9.294;2023-12-20T01:47:35;13.98;;;6.30;;
51190;SDS011;37253;48.736;9.294;2023-12-20T01:49:36;10.45;;;5.40;;
51190;SDS011;37253;48.736;9.294;2023-12-20T01:51:37;11.07;;;5.03;;
51190;SDS011;37253;48.736;9.294;2023-12-20T01:53:38;14.05;;;6.25;;
51190;SDS011;37253;48.736;9.294;2023-12-20T01:55:39;13.50;;;5.70;;
51190;SDS011;37253;48.736;9.294;2023-12-20T01:57:43;11.38;;;5.72;;
51190;SDS011;37253;48.736;9.294;2023-12-20T01:59:43;10.60;;;4.85;;
51190;SDS011;37253;48.736;9.294;2023-12-20T02:01:44;13.68;;;4.78;;
51190;SDS011;37253;48.736;9.294;2023-12-20T02:03:44;12.75;;;5.35;;
51190;SDS011;37253;48.736;9.294;2023-12-20T02:05:45;11.85;;;4.80;;
51190;SDS011;37253;48.736;9.294;2023-12-20T02:07:45;11.90;;;4.75;;
51190;SDS011;37253;48.736;9.294;2023-12-20T02:09:46;10.65;;;5.22;;
51190;SDS011;37253;48.736;9.294;2023-12-20T02:11:46;13.43;;;5.00;;
51190;SDS011;37253;48.736;9.294;2023-12-20T02:13:47;10.27;;;4.82;;
51190;SDS011;37253;48.736;9.294;2023-12-20T02:15:47;10.55;;;5.35;;
51190;SDS011;37253;48.736;9.294;2023-12-20T02:17:47;10.32;;;4.32;;
51190;SDS011;37253;48.736;9.294;2023-12-20T02:19:49;8.48;;;4.50;;
51190;SDS011;37253;48.736;9.294;2023-12-20T02:21:49;10.02;;;4.65;;
51190;SDS011;37253;48.736;9.294;2023-12-20T02:23:50;8.30;;;4.45;;
51190;SDS011;37253;48.736;9.294;2023-12-20T02:25:50;10.05;;;4.47;;
51190;SDS011;37253;48.736;9.294;2023-12-20T02:27:51;7.97;;;4.30;;
51190;SDS011;37253;48.736;9.294;2023-12-20T02:29:52;7.95;;;4.07;;
51190;SDS011;37253;48.736;9.294;2023-12-20T02:31:52;8.30;;;4.32;;
51190;SDS011;37253;48.736;9.294;2023-12-20T02:33:52;9.13;;;4.28;;
51190;SDS011;37253;48.736;9.294;2023-12-20T02:35:53;10.48;;;4.28;;
51190;SDS011;37253;48.736;9.294;2023-12-20T02:37:53;8.65;;;4.13;;
51190;SDS011;37253;48.736;9.294;2023-12-20T02:39:53;8.38;;;4.38;;
51190;SDS011;37253;48.736;9.294;2023-12-20T02:41:53;7.57;;;4.22;;
51190;SDS011;37253;48.736;9.294;2023-12-20T02:43:54;7.45;;;3.35;;
51190;SDS011;37253;48.736;9.294;2023-12-20T02:45:54;6.63;;;3.90;;
51190;SDS011;37253;48.736;9.294;2023-12-20T02:47:55;7.70;;;3.88;;
51190;SDS011;37253;48.736;9.294;2023-12-20T02:49:55;6.75;;;3.10;;
51190;SDS011;37253;48.736;9.294;2023-12-20T02:51:55;7.28;;;3.13;;
51190;SDS011;37253;48.736;9.294;2023-12-20T02:53:56;8.18;;;3.63;;
51190;SDS011;37253;48.736;9.294;2023-12-20T02:55:56;9.00;;;3.40;;
51190;SDS011;37253;48.736;9.294;2023-12-20T02:57:57;6.55;;;3.15;;
51190;SDS011;37253;48.736;9.294;2023-12-20T02:59:57;6.03;;;3.17;;
51190;SDS011;37253;48.736;9.294;2023-12-20T03:01:58;9.02;;;3.50;;
51190;SDS011;37253;48.736;9.294;2023-12-20T03:03:58;6.47;;;3.30;;
51190;SDS011;37253;48.736;9.294;2023-12-20T03:05:58;5.60;;;3.17;;
51190;SDS011;37253;48.736;9.294;2023-12-20T03:07:59;5.63;;;3.25;;
51190;SDS011;37253;48.736;9.294;2023-12-20T03:10:00;6.75;;;3.25;;
51190;SDS011;37253;48.736;9.294;2023-12-20T03:12:00;7.45;;;3.38;;
51190;SDS011;37253;48.736;9.294;2023-12-20T03:14:00;6.15;;;2.72;;
51190;SDS011;37253;48.736;9.294;2023-12-20T03:16:01;7.60;;;3.72;;
51190;SDS011;37253;48.736;9.294;2023-12-20T03:18:01;8.40;;;3.35;;
51190;SDS011;37253;48.736;9.294;2023-12-20T03:20:01;5.80;;;2.78;;
51190;SDS011;37253;48.736;9.294;2023-12-20T03:22:02;5.20;;;2.63;;
51190;SDS011;37253;48.736;9.294;2023-12-20T03:24:02;5.78;;;3.08;;
51190;SDS011;37253;48.736;9.294;2023-12-20T03:26:02;6.70;;;2.97;;
51190;SDS011;37253;48.736;9.294;2023-12-20T03:28:03;5.47;;;2.60;;
51190;SDS011;37253;48.736;9.294;2023-12-20T03:30:04;6.60;;;3.00;;
51190;SDS011;37253;48.736;9.294;2023-12-20T03:32:05;5.68;;;2.72;;
51190;SDS011;37253;48.736;9.294;2023-12-20T03:34:05;5.25;;;2.53;;
51190;SDS011;37253;48.736;9.294;2023-12-20T03:36:06;4.43;;;2.50;;
51190;SDS011;37253;48.736;9.294;2023-12-20T03:38:06;5.45;;;2.53;;
51190;SDS011;37253;48.736;9.294;2023-12-20T03:40:07;4.78;;;2.25;;
51190;SDS011;37253;48.736;9.294;2023-12-20T03:42:07;5.93;;;2.67;;
51190;SDS011;37253;48.736;9.294;2023-12-20T03:44:07;5.40;;;2.80;;
51190;SDS011;37253;48.736;9.294;2023-12-20T03:46:08;6.10;;;2.47;;
51190;SDS011;37253;48.736;9.294;2023-12-20T03:48:08;4.07;;;2.30;;
51190;SDS011;37253;48.736;9.294;2023-12-20T03:50:09;3.55;;;1.92;;
51190;SDS011;37253;48.736;9.294;2023-12-20T03:52:09;4.60;;;2.45;;
51190;SDS011;37253;48.736;9.294;2023-12-20T03:54:09;5.20;;;2.28;;
51190;SDS011;37253;48.736;9.294;2023-12-20T03:56:10;5.10;;;2.33;;
51190;SDS011;37253;48.736;9.294;2023-12-20T03:58:10;4.32;;;2.08;;
51190;SDS011;37253;48.736;9.294;2023-12-20T04:00:11;3.78;;;1.83;;
51190;SDS011;37253;48.736;9.294;2023-12-20T04:02:11;3.28;;;1.75;;
51190;SDS011;37253;48.736;9.294;2023-12-20T04:04:12;4.38;;;1.88;;
51190;SDS011;37253;48.736;9.294;2023-12-20T04:06:16;4.63;;;2.00;;
51190;SDS011;37253;48.736;9.294;2023-12-20T04:08:19;3.88;;;2.10;;
51190;SDS011;37253;48.736;9.294;2023-12-20T04:10:20;4.85;;;2.00;;
51190;SDS011;37253;48.736;9.294;2023-12-20T04:12:20;4.57;;;2.20;;
51190;SDS011;37253;48.736;9.294;2023-12-20T04:14:21;3.92;;;2.08;;
51190;SDS011;37253;48.736;9.294;2023-12-20T04:16:21;4.47;;;2.00;;
51190;SDS011;37253;48.736;9.294;2023-12-20T04:18:21;4.07;;;1.70;;
51190;SDS011;37253;48.736;9.294;2023-12-20T04:20:21;3.17;;;1.90;;
51190;SDS011;37253;48.736;9.294;2023-12-20T04:22:22;3.33;;;1.75;;
51190;SDS011;37253;48.736;9.294;2023-12-20T04:24:22;4.30;;;1.88;;
51190;SDS011;37253;48.736;9.294;2023-12-20T04:26:23;4.40;;;1.83;;
51190;SDS011;37253;48.736;9.294;2023-12-20T04:28:23;2.92;;;1.80;;
51190;SDS011;37253;48.736;9.294;2023-12-20T04:30:23;3.15;;;1.80;;
51190;SDS011;37253;48.736;9.294;2023-12-20T04:32:24;2.65;;;1.50;;
51190;SDS011;37253;48.736;9.294;2023-12-20T04:34:24;3.72;;;2.00;;
51190;SDS011;37253;48.736;9.294;2023-12-20T04:36:24;2.88;;;1.70;;
51190;SDS011;37253;48.736;9.294;2023-12-20T04:38:26;2.53;;;1.50;;
51190;SDS011;37253;48.736;9.294;2023-12-20T04:40:27;3.42;;;1.55;;
51190;SDS011;37253;48.736;9.294;2023-12-20T04:42:27;3.20;;;1.50;;
51190;SDS011;37253;48.736;9.294;2023-12-20T04:44:27;3.33;;;1.50;;
51190;SDS011;37253;48.736;9.294;2023-12-20T04:46:28;3.20;;;1.77;;
51190;SDS011;37253;48.736;9.294;2023-12-20T04:48:28;3.22;;;1.65;;
51190;SDS011;37253;48.736;9.294;2023-12-20T04:50:28;2.45;;;1.58;;
51190;SDS011;37253;48.736;9.294;2023-12-20T04:52:28;2.60;;;1.48;;
51190;SDS011;37253;48.736;9.294;2023-12-20T04:54:29;3.50;;;1.50;;
51190;SDS011;37253;48.736;9.294;2023-12-20T04:56:29;3.67;;;1.40;;
51190;SDS011;37253;48.736;9.294;2023-12-20T04:58:29;2.67;;;1.40;;
51190;SDS011;37253;48.736;9.294;2023-12-20T05:00:30;2.80;;;1.48;;
51190;SDS011;37253;48.736;9.294;2023-12-20T05:02:30;2.55;;;1.35;;
51190;SDS011;37253;48.736;9.294;2023-12-20T05:04:30;3.72;;;1.60;;
51190;SDS011;37253;48.736;9.294;2023-12-20T05:06:31;4.35;;;1.60;;
51190;SDS011;37253;48.736;9.294;2023-12-20T05:08:31;2.88;;;1.40;;
51190;SDS011;37253;48.736;9.294;2023-12-20T05:10:31;2.95;;;1.25;;
51190;SDS011;37253;48.736;9.294;2023-12-20T05:12:32;1.65;;;1.30;;
51190;SDS011;37253;48.736;9.294;2023-12-20T05:14:32;1.83;;;1.17;;
51190;SDS011;37253;48.736;9.294;2023-12-20T05:16:32;2.70;;;1.40;;
51190;SDS011;37253;48.736;9.294;2023-12-20T05:18:33;4.07;;;1.50;;
51190;SDS011;37253;48.736;9.294;2023-12-20T05:20:33;3.35;;;1.33;;
51190;SDS011;37253;48.736;9.294;2023-12-20T05:22:33;3.15;;;1.33;;
51190;SDS011;37253;48.736;9.294;2023-12-20T05:24:34;3.40;;;1.30;;
51190;SDS011;37253;48.736;9.294;2023-12-20T05:26:34;2.13;;;1.30;;
51190;SDS011;37253;48.736;9.294;2023-12-20T05:28:34;1.30;;;1.00;;
51190;SDS011;37253;48.736;9.294;2023-12-20T05:30:34;2.15;;;1.23;;
51190;SDS011;37253;48.736;9.294;2023-12-20T05:32:35;1.95;;;0.90;;
51190;SDS011;37253;48.736;9.294;2023-12-20T05:34:35;1.80;;;1.20;;
51190;SDS011;37253;48.736;9.294;2023-12-20T05:36:36;1.70;;;1.08;;
51190;SDS011;37253;48.736;9.294;2023-12-20T05:38:37;2.20;;;1.00;;
51190;SDS011;37253;48.736;9.294;2023-12-20T05:40:37;1.90;;;1.08;;
51190;SDS011;37253;48.736;9.294;2023-12-20T05:42:37;2.20;;;1.15;;
51190;SDS011;37253;48.736;9.294;2023-12-20T05:44:37;1.83;;;1.10;;
51190;SDS011;37253;48.736;9.294;2023-12-20T05:46:38;2.42;;;1.10;;
51190;SDS011;37253;48.736;9.294;2023-12-20T05:48:39;2.33;;;1.17;;
51190;SDS011;37253;48.736;9.294;2023-12-20T05:50:40;2.40;;;1.10;;
51190;SDS011;37253;48.736;9.294;2023-12-20T05:52:40;2.55;;;1.17;;
51190;SDS011;37253;48.736;9.294;2023-12-20T05:54:41;2.28;;;1.08;;
51190;SDS011;37253;48.736;9.294;2023-12-20T05:56:41;1.85;;;1.10;;
51190;SDS011;37253;48.736;9.294;2023-12-20T05:58:41;2.22;;;1.20;;
51190;SDS011;37253;48.736;9.294;2023-12-20T06:00:42;2.88;;;1.05;;
51190;SDS011;37253;48.736;9.294;2023-12-20T06:02:42;1.30;;;0.90;;
51190;SDS011;37253;48.736;9.294;2023-12-20T06:04:43;1.77;;;1.00;;
51190;SDS011;37253;48.736;9.294;2023-12-20T06:06:44;2.05;;;1.08;;
51190;SDS011;37253;48.736;9.294;2023-12-20T06:08:44;2.15;;;1.10;;
51190;SDS011;37253;48.736;9.294;2023-12-20T06:10:44;1.55;;;0.80;;
51190;SDS011;37253;48.736;9.294;2023-12-20T06:12:45;2.35;;;1.02;;
51190;SDS011;37253;48.736;9.294;2023-12-20T06:14:47;1.77;;;1.00;;
51190;SDS011;37253;48.736;9.294;2023-12-20T06:16:47;1.27;;;0.80;;
51190;SDS011;37253;48.736;9.294;2023-12-20T06:18:47;1.52;;;0.88;;
51190;SDS011;37253;48.736;9.294;2023-12-20T06:20:48;2.33;;;0.82;;
51190;SDS011;37253;48.736;9.294;2023-12-20T06:22:48;2.78;;;1.23;;
51190;SDS011;37253;48.736;9.294;2023-12-20T06:24:48;3.35;;;1.33;;
51190;SDS011;37253;48.736;9.294;2023-12-20T06:26:49;1.75;;;1.00;;
51190;SDS011;37253;48.736;9.294;2023-12-20T06:28:49;3.25;;;1.10;;
51190;SDS011;37253;48.736;9.294;2023-12-20T06:30:49;3.80;;;1.10;;
51190;SDS011;37253;48.736;9.294;2023-12-20T06:32:52;3.80;;;1.02;;
51190;SDS011;37253;48.736;9.294;2023-12-20T06:34:52;4.40;;;1.13;;
51190;SDS011;37253;48.736;9.294;2023-12-20T06:36:53;2.42;;;1.17;;
51190;SDS011;37253;48.736;9.294;2023-12-20T06:38:53;8.98;;;1.38;;
51190;SDS011;37253;48.736;9.294;2023-12-20T06:40:53;6.05;;;1.38;;
51190;SDS011;37253;48.736;9.294;2023-12-20T06:42:54;4.72;;;1.45;;
51190;SDS011;37253;48.736;9.294;2023-12-20T06:44:54;3.60;;;1.23;;
51190;SDS011;37253;48.736;9.294;2023-12-20T06:46:54;8.95;;;1.65;;
51190;SDS011;37253;48.736;9.294;2023-12-20T06:48:55;6.57;;;1.33;;
51190;SDS011;37253;48.736;9.294;2023-12-20T06:50:55;4.50;;;1.23;;
51190;SDS011;37253;48.736;9.294;2023-12-20T06:52:55;5.90;;;1.42;;
51190;SDS011;37253;48.736;9.294;2023-12-20T06:54:56;5.68;;;1.23;;
51190;SDS011;37253;48.736;9.294;2023-12-20T06:56:56;6.85;;;1.30;;
51190;SDS011;37253;48.736;9.294;2023-12-20T06:58:56;6.20;;;1.30;;
51190;SDS011;37253;48.736;9.294;2023-12-20T07:00:57;4.60;;;1.25;;
51190;SDS011;37253;48.736;9.294;2023-12-20T07:02:57;4.90;;;1.38;;
51190;SDS011;37253;48.736;9.294;2023-12-20T07:04:58;3.65;;;1.10;;
51190;SDS011;37253;48.736;9.294;2023-12-20T07:06:58;4.63;;;1.33;;
51190;SDS011;37253;48.736;9.294;2023-12-20T07:09:00;4.13;;;1.50;;
51190;SDS011;37253;48.736;9.294;2023-12-20T07:11:00;5.05;;;1.40;;
51190;SDS011;37253;48.736;9.294;2023-12-20T07:13:00;5.53;;;1.13;;
51190;SDS011;37253;48.736;9.294;2023-12-20T07:15:01;4.40;;;1.10;;
51190;SDS011;37253;48.736;9.294;2023-12-20T07:17:01;4.30;;;1.17;;
51190;SDS011;37253;48.736;9.294;2023-12-20T07:19:02;4.28;;;1.30;;
51190;SDS011;37253;48.736;9.294;2023-12-20T07:21:03;2.80;;;1.08;;
51190;SDS011;37253;48.736;9.294;2023-12-20T07:23:03;2.67;;;1.15;;
51190;SDS011;37253;48.736;9.294;2023-12-20T07:25:04;3.90;;;1.05;;
51190;SDS011;37253;48.736;9.294;2023-12-20T07:27:04;5.72;;;1.38;;
51190;SDS011;37253;48.736;9.294;2023-12-20T07:29:05;4.00;;;1.20;;
51190;SDS011;37253;48.736;9.294;2023-12-20T07:31:06;3.58;;;1.30;;
51190;SDS011;37253;48.736;9.294;2023-12-20T07:33:06;4.25;;;1.00;;
51190;SDS011;37253;48.736;9.294;2023-12-20T07:35:08;3.25;;;1.05;;
51190;SDS011;37253;48.736;9.294;2023-12-20T07:37:09;5.15;;;1.20;;
51190;SDS011;37253;48.736;9.294;2023-12-20T07:39:11;2.15;;;1.05;;
51190;SDS011;37253;48.736;9.294;2023-12-20T07:41:11;6.35;;;1.80;;
51190;SDS011;37253;48.736;9.294;2023-12-20T07:43:12;4.35;;;1.10;;
51190;SDS011;37253;48.736;9.294;2023-12-20T07:45:12;2.97;;;1.00;;
51190;SDS011;37253;48.736;9.294;2023-12-20T07:47:12;3.33;;;1.15;;
51190;SDS011;37253;48.736;9.294;2023-12-20T07:49:16;1.83;;;0.88;;
51190;SDS011;37253;48.736;9.294;2023-12-20T07:51:17;3.78;;;1.20;;
51190;SDS011;37253;48.736;9.294;2023-12-20T07:53:17;4.20;;;1.00;;
51190;SDS011;37253;48.736;9.294;2023-12-20T07:55:17;2.35;;;0.80;;
51190;SDS011;37253;48.736;9.294;2023-12-20T07:57:18;2.53;;;0.82;;
51190;SDS011;37253;48.736;9.294;2023-12-20T07:59:18;2.33;;;0.95;;
51190;SDS011;37253;48.736;9.294;2023-12-20T08:01:18;2.15;;;0.70;;
51190;SDS011;37253;48.736;9.294;2023-12-20T08:03:19;2.88;;;1.00;;
51190;SDS011;37253;48.736;9.294;2023-12-20T08:05:20;3.20;;;0.90;;
51190;SDS011;37253;48.736;9.294;2023-12-20T08:07:20;3.67;;;0.90;;
51190;SDS011;37253;48.736;9.294;2023-12-20T08:09:20;2.53;;;0.90;;
51190;SDS011;37253;48.736;9.294;2023-12-20T08:11:20;1.63;;;0.82;;
51190;SDS011;37253;48.736;9.294;2023-12-20T08:13:21;3.55;;;1.00;;
51190;SDS011;37253;48.736;9.294;2023-12-20T08:15:25;8.90;;;0.95;;
51190;SDS011;37253;48.736;9.294;2023-12-20T08:17:26;3.95;;;0.82;;
51190;SDS011;37253;48.736;9.294;2023-12-20T08:19:26;2.28;;;0.75;;
51190;SDS011;37253;48.736;9.294;2023-12-20T08:21:26;2.15;;;0.75;;
51190;SDS011;37253;48.736;9.294;2023-12-20T08:23:27;2.28;;;0.90;;
51190;SDS011;37253;48.736;9.294;2023-12-20T08:25:27;2.38;;;0.93;;
51190;SDS011;37253;48.736;9.294;2023-12-20T08:27:28;2.50;;;0.70;;
51190;SDS011;37253;48.736;9.294;2023-12-20T08:29:28;4.22;;;1.42;;
51190;SDS011;37253;48.736;9.294;2023-12-20T08:31:28;11.65;;;4.80;;
51190;SDS011;37253;48.736;9.294;2023-12-20T08:33:29;7.50;;;2.50;;
51190;SDS011;37253;48.736;9.294;2023-12-20T08:35:29;12.18;;;5.40;;
51190;SDS011;37253;48.736;9.294;2023-12-20T08:37:31;10.57;;;3.97;;
51190;SDS011;37253;48.736;9.294;2023-12-20T08:39:31;7.05;;;3.20;;
51190;SDS011;37253;48.736;9.294;2023-12-20T08:41:34;7.43;;;2.75;;
51190;SDS011;37253;48.736;9.294;2023-12-20T08:43:35;10.73;;;3.88;;
51190;SDS011;37253;48.736;9.294;2023-12-20T08:45:35;43.83;;;17.15;;
51190;SDS011;37253;48.736;9.294;2023-12-20T08:47:36;57.85;;;21.02;;
51190;SDS011;37253;48.736;9.294;2023-12-20T08:49:36;81.75;;;28.33;;
51190;SDS011;37253;48.736;9.294;2023-12-20T08:51:36;39.03;;;15.10;;
51190;SDS011;37253;48.736;9.294;2023-12-20T08:55:40;71.78;;;25.98;;
51190;SDS011;37253;48.736;9.294;2023-12-20T08:57:40;84.93;;;32.95;;
51190;SDS011;37253;48.736;9.294;2023-12-20T08:59:41;81.28;;;33.05;;
51190;SDS011;37253;48.736;9.294;2023-12-20T09:01:41;62.50;;;25.83;;
51190;SDS011;37253;48.736;9.294;2023-12-20T09:03:41;101.22;;;40.00;;
51190;SDS011;37253;48.736;9.294;2023-12-20T09:05:42;97.43;;;42.67;;
51190;SDS011;37253;48.736;9.294;2023-12-20T09:07:42;76.32;;;32.58;;
51190;SDS011;37253;48.736;9.294;2023-12-20T09:09:43;59.08;;;25.52;;
51190;SDS011;37253;48.736;9.294;2023-12-20T09:11:43;69.80;;;29.75;;
51190;SDS011;37253;48.736;9.294;2023-12-20T09:13:46;54.00;;;21.98;;
51190;SDS011;37253;48.736;9.294;2023-12-20T09:15:46;45.33;;;19.50;;
51190;SDS011;37253;48.736;9.294;2023-12-20T09:17:46;60.97;;;23.35;;
51190;SDS011;37253;48.736;9.294;2023-12-20T09:19:47;62.97;;;25.17;;
51190;SDS011;37253;48.736;9.294;2023-12-20T09:21:47;104.20;;;41.35;;
51190;SDS011;37253;48.736;9.294;2023-12-20T09:23:47;80.88;;;32.10;;
51190;SDS011;37253;48.736;9.294;2023-12-20T09:25:47;126.78;;;52.15;;
51190;SDS011;37253;48.736;9.294;2023-12-20T09:27:48;106.97;;;41.55;;
51190;SDS011;37253;48.736;9.294;2023-12-20T09:29:48;163.23;;;68.45;;
51190;SDS011;37253;48.736;9.294;2023-12-20T09:31:49;134.38;;;56.42;;
51190;SDS011;37253;48.736;9.294;2023-12-20T09:33:50;135.45;;;56.25;;
51190;SDS011;37253;48.736;9.294;2023-12-20T09:35:50;207.40;;;84.60;;
51190;SDS011;37253;48.736;9.294;2023-12-20T09:37:50;172.35;;;70.97;;
51190;SDS011;37253;48.736;9.294;2023-12-20T09:39:50;122.63;;;48.55;;
51190;SDS011;37253;48.736;9.294;2023-12-20T09:42:01;160.43;;;63.10;;
51190;SDS011;37253;48.736;9.294;2023-12-20T09:44:02;142.38;;;51.78;;
51190;SDS011;37253;48.736;9.294;2023-12-20T09:46:04;134.23;;;50.70;;
51190;SDS011;37253;48.736;9.294;2023-12-20T09:48:05;154.73;;;54.17;;
51190;SDS011;37253;48.736;9.294;2023-12-20T09:50:06;154.45;;;57.60;;
51190;SDS011;37253;48.736;9.294;2023-12-20T09:52:06;239.07;;;90.15;;
51190;SDS011;37253;48.736;9.294;2023-12-20T09:54:08;217.80;;;81.20;;
51190;SDS011;37253;48.736;9.294;2023-12-20T09:56:09;201.90;;;72.05;;
51190;SDS011;37253;48.736;9.294;2023-12-20T09:58:10;168.30;;;58.40;;
51190;SDS011;37253;48.736;9.294;2023-12-20T10:00:11;164.65;;;61.40;;
51190;SDS011;37253;48.736;9.294;2023-12-20T10:02:12;162.57;;;59.97;;
51190;SDS011;37253;48.736;9.294;2023-12-20T10:04:15;145.20;;;55.05;;
51190;SDS011;37253;48.736;9.294;2023-12-20T10:06:15;121.75;;;46.88;;
51190;SDS011;37253;48.736;9.294;2023-12-20T10:08:15;137.98;;;52.53;;
51190;SDS011;37253;48.736;9.294;2023-12-20T10:10:16;407.90;;;145.75;;
51190;SDS011;37253;48.736;9.294;2023-12-20T10:12:16;360.63;;;128.20;;
51190;SDS011;37253;48.736;9.294;2023-12-20T10:14:16;205.68;;;72.28;;
51190;SDS011;37253;48.736;9.294;2023-12-20T10:16:18;243.27;;;88.07;;
51190;SDS011;37253;48.736;9.294;2023-12-20T10:18:18;199.60;;;71.18;;
51190;SDS011;37253;48.736;9.294;2023-12-20T10:20:20;187.30;;;67.20;;
51190;SDS011;37253;48.736;9.294;2023-12-20T10:22:21;169.15;;;60.28;;
51190;SDS011;37253;48.736;9.294;2023-12-20T10:24:21;152.38;;;57.45;;
51190;SDS011;37253;48.736;9.294;2023-12-20T10:26:22;157.52;;;53.33;;
51190;SDS011;37253;48.736;9.294;2023-12-20T10:28:24;130.73;;;49.45;;
51190;SDS011;37253;48.736;9.294;2023-12-20T10:30:27;137.77;;;48.25;;
51190;SDS011;37253;48.736;9.294;2023-12-20T10:32:27;145.88;;;56.42;;
51190;SDS011;37253;48.736;9.294;2023-12-20T10:34:28;124.53;;;45.00;;
51190;SDS011;37253;48.736;9.294;2023-12-20T10:36:29;118.57;;;44.63;;
51190;SDS011;37253;48.736;9.294;2023-12-20T10:38:31;114.90;;;43.60;;
51190;SDS011;37253;48.736;9.294;2023-12-20T10:40:34;102.57;;;37.10;;
51190;SDS011;37253;48.736;9.294;2023-12-20T10:42:36;108.45;;;39.50;;
51190;SDS011;37253;48.736;9.294;2023-12-20T10:44:37;103.95;;;37.50;;
51190;SDS011;37253;48.736;9.294;2023-12-20T10:46:37;97.78;;;36.33;;
51190;SDS011;37253;48.736;9.294;2023-12-20T10:48:39;100.45;;;37.47;;
51190;SDS011;37253;48.736;9.294;2023-12-20T10:50:40;101.10;;;36.13;;
51190;SDS011;37253;48.736;9.294;2023-12-20T10:52:41;65.63;;;23.77;;
51190;SDS011;37253;48.736;9.294;2023-12-20T10:54:44;64.93;;;26.83;;
51190;SDS011;37253;48.736;9.294;2023-12-20T10:56:44;75.22;;;28.25;;
51190;SDS011;37253;48.736;9.294;2023-12-20T10:58:45;67.35;;;27.65;;
51190;SDS011;37253;48.736;9.294;2023-12-20T11:00:46;69.43;;;25.42;;
51190;SDS011;37253;48.736;9.294;2023-12-20T11:02:48;79.00;;;28.92;;
51190;SDS011;37253;48.736;9.294;2023-12-20T11:07:15;73.05;;;27.35;;
51190;SDS011;37253;48.736;9.294;2023-12-20T11:09:24;73.20;;;27.42;;
51190;SDS011;37253;48.736;9.294;2023-12-20T11:11:32;79.47;;;29.30;;
51190;SDS011;37253;48.736;9.294;2023-12-20T11:14:05;162.52;;;56.05;;
51190;SDS011;37253;48.736;9.294;2023-12-20T11:16:08;165.75;;;52.60;;
51190;SDS011;37253;48.736;9.294;2023-12-20T11:18:09;203.55;;;69.22;;
51190;SDS011;37253;48.736;9.294;2023-12-20T11:20:09;153.95;;;54.80;;
51190;SDS011;37253;48.736;9.294;2023-12-20T11:22:11;202.32;;;74.57;;
51190;SDS011;37253;48.736;9.294;2023-12-20T11:24:12;164.15;;;61.50;;
51190;SDS011;37253;48.736;9.294;2023-12-20T11:26:12;248.38;;;92.47;;
51190;SDS011;37253;48.736;9.294;2023-12-20T11:28:15;406.25;;;142.55;;
51190;SDS011;37253;48.736;9.294;2023-12-20T11:30:20;292.55;;;102.15;;
51190;SDS011;37253;48.736;9.294;2023-12-20T11:34:28;200.10;;;66.05;;
51190;SDS011;37253;48.736;9.294;2023-12-20T11:36:32;150.15;;;54.22;;
51190;SDS011;37253;48.736;9.294;2023-12-20T11:38:35;143.30;;;49.45;;
51190;SDS011;37253;48.736;9.294;2023-12-20T11:40:39;158.20;;;55.70;;
51190;SDS011;37253;48.736;9.294;2023-12-20T11:42:42;138.77;;;49.38;;
51190;SDS011;37253;48.736;9.294;2023-12-20T11:44:43;124.30;;;43.95;;
51190;SDS011;37253;48.736;9.294;2023-12-20T11:46:45;108.97;;;44.28;;
51190;SDS011;37253;48.736;9.294;2023-12-20T11:48:45;110.18;;;42.10;;
51190;SDS011;37253;48.736;9.294;2023-12-20T11:50:45;113.95;;;42.08;;
51190;SDS011;37253;48.736;9.294;2023-12-20T11:52:46;103.50;;;36.47;;
51190;SDS011;37253;48.736;9.294;2023-12-20T11:54:49;102.43;;;39.80;;
51190;SDS011;37253;48.736;9.294;2023-12-20T11:56:51;102.75;;;37.50;;
51190;SDS011;37253;48.736;9.294;2023-12-20T11:58:51;94.35;;;34.50;;
51190;SDS011;37253;48.736;9.294;2023-12-20T12:00:51;86.88;;;33.47;;
51190;SDS011;37253;48.736;9.294;2023-12-20T12:02:55;92.18;;;33.30;;
51190;SDS011;37253;48.736;9.294;2023-12-20T12:04:59;355.60;;;110.88;;
51190;SDS011;37253;48.736;9.294;2023-12-20T12:06:59;324.75;;;98.47;;